createdAt,value
2022-08-26T00:00:59.303Z,20.93
2022-08-26T00:03:26.592Z,20.87
2022-08-26T00:05:54.464Z,20.82
2022-08-26T00:08:21.515Z,20.80
2022-08-26T00:10:48.937Z,20.76
2022-08-26T00:13:15.810Z,20.72
2022-08-26T00:15:47.205Z,20.68
2022-08-26T00:18:21.734Z,20.67
2022-08-26T00:20:49.311Z,20.63
2022-08-26T00:23:16.178Z,20.57
2022-08-26T00:25:43.023Z,20.53
2022-08-26T00:28:10.860Z,20.49
2022-08-26T00:30:38.209Z,20.45
2022-08-26T00:33:07.142Z,20.44
2022-08-26T00:35:34.923Z,20.42
2022-08-26T00:38:03.108Z,20.42
2022-08-26T00:40:35.581Z,20.38
2022-08-26T00:43:02.948Z,20.33
2022-08-26T00:45:54.171Z,20.31
2022-08-26T00:48:23.339Z,20.26
2022-08-26T00:50:55.979Z,20.19
2022-08-26T00:53:27.815Z,20.17
2022-08-26T00:56:10.238Z,20.13
2022-08-26T00:58:43.118Z,20.11
2022-08-26T01:01:11.071Z,20.11
2022-08-26T01:03:38.463Z,20.08
2022-08-26T01:06:13.164Z,20.08
2022-08-26T01:08:40.603Z,20.07
2022-08-26T01:11:08.249Z,20.04
2022-08-26T01:13:36.666Z,20.04
2022-08-26T01:16:04.381Z,20.00
2022-08-26T01:18:31.739Z,20.00
2022-08-26T01:20:58.342Z,19.99
2022-08-26T01:23:29.186Z,19.97
2022-08-26T01:25:59.336Z,19.96
2022-08-26T01:28:28.768Z,19.95
2022-08-26T01:30:57.411Z,19.96
2022-08-26T01:33:28.635Z,19.94
2022-08-26T01:35:55.545Z,19.95
2022-08-26T01:38:23.647Z,19.94
2022-08-26T01:40:50.788Z,19.91
2022-08-26T01:43:22.164Z,19.87
2022-08-26T01:45:49.651Z,19.83
2022-08-26T01:48:19.411Z,19.85
2022-08-26T01:50:46.556Z,19.84
2022-08-26T01:53:16.639Z,19.81
2022-08-26T01:55:45.373Z,19.83
2022-08-26T01:58:15.432Z,19.84
2022-08-26T02:00:42.260Z,19.83
2022-08-26T02:03:17.490Z,19.84
2022-08-26T02:06:06.500Z,19.82
2022-08-26T02:08:41.277Z,19.80
2022-08-26T02:11:08.110Z,19.79
2022-08-26T02:13:37.969Z,19.77
2022-08-26T02:16:05.022Z,19.72
2022-08-26T02:18:36.764Z,19.74
2022-08-26T02:21:03.890Z,19.73
2022-08-26T02:23:33.627Z,19.71
2022-08-26T02:26:07.389Z,19.70
2022-08-26T02:28:37.422Z,19.69
2022-08-26T02:31:04.203Z,19.67
2022-08-26T02:33:31.859Z,19.64
2022-08-26T02:35:58.700Z,19.61
2022-08-26T02:38:26.193Z,19.57
2022-08-26T02:40:52.863Z,19.55
2022-08-26T02:43:32.839Z,19.52
2022-08-26T02:46:02.000Z,19.48
2022-08-26T02:48:28.924Z,19.46
2022-08-26T02:50:55.348Z,19.38
2022-08-26T03:10:35.358Z,19.06
2022-08-26T03:13:05.217Z,19.03
2022-08-26T03:15:32.427Z,19.00
2022-08-26T03:18:01.576Z,18.96
2022-08-26T03:20:28.068Z,18.92
2022-08-26T03:22:56.136Z,18.88
2022-08-26T03:25:23.211Z,18.84
2022-08-26T03:27:50.289Z,18.78
2022-08-26T03:30:35.342Z,18.75
2022-08-26T03:33:02.410Z,18.70
2022-08-26T03:35:28.936Z,18.65
2022-08-26T03:37:55.873Z,18.63
2022-08-26T03:40:22.709Z,18.58
2022-08-26T03:42:49.684Z,18.55
2022-08-26T03:45:17.106Z,18.51
2022-08-26T03:47:44.553Z,18.46
2022-08-26T03:50:12.650Z,18.45
2022-08-26T03:52:43.519Z,18.43
2022-08-26T03:55:10.954Z,18.40
2022-08-26T03:57:37.386Z,18.35
2022-08-26T04:00:05.531Z,18.32
2022-08-26T04:02:32.046Z,18.32
2022-08-26T04:04:58.450Z,18.28
2022-08-26T04:07:26.022Z,18.27
2022-08-26T04:09:56.249Z,18.23
2022-08-26T04:12:23.029Z,18.23
2022-08-26T04:14:51.681Z,18.19
2022-08-26T04:17:20.228Z,18.17
2022-08-26T04:19:52.765Z,18.16
2022-08-26T04:22:24.035Z,18.17
2022-08-26T04:24:51.617Z,18.17
2022-08-26T04:27:18.069Z,18.14
2022-08-26T04:29:46.253Z,18.13
2022-08-26T04:32:14.488Z,18.15
2022-08-26T04:34:43.356Z,18.16
2022-08-26T04:37:11.359Z,18.15
2022-08-26T04:39:38.194Z,18.16
2022-08-26T04:42:05.949Z,18.16
2022-08-26T04:44:34.758Z,18.16
2022-08-26T04:47:01.199Z,18.14
2022-08-26T04:49:35.347Z,18.17
2022-08-26T04:52:02.253Z,18.19
2022-08-26T04:54:29.002Z,18.18
2022-08-26T04:56:55.539Z,18.19
2022-08-26T04:59:22.629Z,18.20
2022-08-26T05:01:52.015Z,18.19
2022-08-26T05:04:19.427Z,18.21
2022-08-26T05:06:46.572Z,18.22
2022-08-26T05:09:14.256Z,18.24
2022-08-26T05:11:41.801Z,18.24
2022-08-26T05:14:08.345Z,18.28
2022-08-26T05:16:34.894Z,18.31
2022-08-26T05:19:01.557Z,18.35
2022-08-26T05:21:29.141Z,18.39
2022-08-26T05:23:56.343Z,18.39
2022-08-26T05:26:24.514Z,18.38
2022-08-26T05:28:54.756Z,18.39
2022-08-26T05:31:27.099Z,18.40
2022-08-26T05:33:54.064Z,18.46
2022-08-26T05:36:22.309Z,18.51
2022-08-26T05:38:49.094Z,18.56
2022-08-26T05:41:34.295Z,18.63
2022-08-26T05:44:05.935Z,18.67
2022-08-26T05:46:33.408Z,18.73
2022-08-26T05:49:00.986Z,18.74
2022-08-26T05:51:27.441Z,18.79
2022-08-26T05:53:57.094Z,18.84
2022-08-26T05:56:27.953Z,18.90
2022-08-26T05:58:55.589Z,18.94
2022-08-26T06:01:25.607Z,18.95
2022-08-26T06:03:52.921Z,19.01
2022-08-26T06:06:27.685Z,19.01
2022-08-26T06:08:55.633Z,19.08
2022-08-26T06:11:26.181Z,19.12
2022-08-26T06:13:53.608Z,19.18
2022-08-26T06:16:22.341Z,19.23
2022-08-26T06:18:50.629Z,19.23
2022-08-26T06:21:27.661Z,19.34
2022-08-26T06:24:14.490Z,19.41
2022-08-26T06:26:42.803Z,19.58
2022-08-26T06:29:09.447Z,19.74
2022-08-26T06:31:36.374Z,19.88
2022-08-26T06:34:09.907Z,20.06
2022-08-26T06:36:37.207Z,20.22
2022-08-26T06:39:09.414Z,20.38
2022-08-26T06:41:40.101Z,20.51
2022-08-26T06:44:09.529Z,20.70
2022-08-26T06:46:36.634Z,20.89
2022-08-26T06:49:03.183Z,21.07
2022-08-26T06:51:34.584Z,21.32
2022-08-26T06:54:02.065Z,21.54
2022-08-26T06:56:32.647Z,21.91
2022-08-26T06:58:59.095Z,22.29
2022-08-26T07:01:29.921Z,22.62
2022-08-26T07:03:59.220Z,22.71
2022-08-26T07:06:27.381Z,22.83
2022-08-26T07:08:54.793Z,23.15
2022-08-26T07:11:21.230Z,23.29
2022-08-26T07:13:47.747Z,23.55
2022-08-26T07:16:15.161Z,23.86
2022-08-26T07:18:42.421Z,24.16
2022-08-26T07:21:13.008Z,24.02
2022-08-26T07:23:41.385Z,24.29
2022-08-26T07:26:10.500Z,24.41
2022-08-26T07:28:37.010Z,24.52
2022-08-26T07:31:04.841Z,24.55
2022-08-26T07:33:36.639Z,24.82
2022-08-26T07:36:04.301Z,25.02
2022-08-26T07:38:30.776Z,24.97
2022-08-26T07:41:01.810Z,25.16
2022-08-26T07:43:29.277Z,25.37
2022-08-26T07:45:55.942Z,25.43
2022-08-26T07:48:22.458Z,25.49
2022-08-26T07:50:50.579Z,25.63
2022-08-26T07:53:18.196Z,25.64
2022-08-26T07:55:46.116Z,25.85
2022-08-26T07:58:12.641Z,26.11
2022-08-26T08:00:39.247Z,26.37
2022-08-26T08:03:06.249Z,26.67
2022-08-26T08:05:34.488Z,26.69
2022-08-26T08:08:27.103Z,26.53
2022-08-26T08:10:48.847Z,26.65
2022-08-26T08:13:15.680Z,26.90
2022-08-26T08:15:42.437Z,27.00
2022-08-26T08:18:15.673Z,26.89
2022-08-26T08:20:54.438Z,27.00
2022-08-26T08:23:29.441Z,26.93
2022-08-26T08:26:06.834Z,27.03
2022-08-26T08:28:35.212Z,27.05
2022-08-26T08:31:02.263Z,26.92
2022-08-26T08:33:32.475Z,26.87
2022-08-26T08:36:00.037Z,26.86
2022-08-26T08:38:26.938Z,26.81
2022-08-26T08:40:54.027Z,26.89
2022-08-26T08:43:35.123Z,26.79
2022-08-26T08:46:07.916Z,26.68
2022-08-26T08:48:37.572Z,26.71
2022-08-26T08:51:08.175Z,26.69
2022-08-26T08:53:39.314Z,26.71
2022-08-26T08:56:25.749Z,26.77
2022-08-26T08:58:52.158Z,26.85
2022-08-26T09:01:25.816Z,26.90
2022-08-26T09:03:55.263Z,26.94
2022-08-26T09:06:21.870Z,27.01
2022-08-26T09:08:50.575Z,27.01
2022-08-26T09:11:17.784Z,26.97
2022-08-26T09:13:49.014Z,27.00
2022-08-26T09:16:20.285Z,26.99
2022-08-26T09:18:55.435Z,26.99
2022-08-26T09:21:25.610Z,27.00
2022-08-26T09:23:53.673Z,27.22
2022-08-26T09:26:29.200Z,27.19
2022-08-26T09:29:04.293Z,27.26
2022-08-26T09:31:35.780Z,27.34
2022-08-26T09:34:17.341Z,27.40
2022-08-26T09:36:48.865Z,27.40
2022-08-26T09:39:24.822Z,27.52
2022-08-26T09:42:03.204Z,27.57
2022-08-26T09:44:30.577Z,27.53
2022-08-26T09:46:59.653Z,27.70
2022-08-26T09:49:30.713Z,27.85
2022-08-26T09:52:05.582Z,27.94
2022-08-26T09:54:33.445Z,27.88
2022-08-26T09:57:20.203Z,27.79
2022-08-26T09:59:46.915Z,27.83
2022-08-26T10:02:25.494Z,27.99
2022-08-26T10:04:54.284Z,28.14
2022-08-26T10:07:40.378Z,28.27
2022-08-26T10:10:09.455Z,28.27
2022-08-26T10:12:41.727Z,28.35
2022-08-26T10:15:09.882Z,28.29
2022-08-26T10:17:41.496Z,28.38
2022-08-26T10:20:22.676Z,28.45
2022-08-26T10:22:58.673Z,28.56
2022-08-26T10:25:29.039Z,28.68
2022-08-26T10:28:05.775Z,28.71
2022-08-26T10:30:38.670Z,28.87
2022-08-26T10:33:11.040Z,29.01
2022-08-26T10:35:44.633Z,29.23
2022-08-26T10:38:14.470Z,29.46
2022-08-26T10:40:50.110Z,29.48
2022-08-26T10:43:30.897Z,29.38
2022-08-26T10:46:00.673Z,29.54
2022-08-26T10:48:42.831Z,29.56
2022-08-26T10:51:11.402Z,29.70
2022-08-26T10:53:44.505Z,29.71
2022-08-26T10:56:15.652Z,29.83
2022-08-26T10:58:51.465Z,29.92
2022-08-26T11:01:40.793Z,30.12
2022-08-26T11:04:07.520Z,30.45
2022-08-26T11:06:34.445Z,30.24
2022-08-26T11:09:08.882Z,30.15
2022-08-26T11:11:45.347Z,30.31
2022-08-26T11:14:13.281Z,30.36
2022-08-26T11:16:43.382Z,30.34
2022-08-26T11:19:11.806Z,30.38
2022-08-26T11:21:50.656Z,30.62
2022-08-26T11:24:38.758Z,30.68
2022-08-26T11:27:28.285Z,30.96
2022-08-26T11:29:56.258Z,30.86
2022-08-26T11:32:52.208Z,30.80
2022-08-26T11:35:21.816Z,30.91
2022-08-26T11:37:48.376Z,31.04
2022-08-26T11:40:20.281Z,30.96
2022-08-26T11:42:52.339Z,30.86
2022-08-26T11:45:22.881Z,30.65
2022-08-26T11:47:50.002Z,30.71
2022-08-26T11:50:26.172Z,30.68
2022-08-26T11:53:01.684Z,30.30
2022-08-26T11:55:28.763Z,30.03
2022-08-26T11:57:57.861Z,29.93
2022-08-26T12:00:26.530Z,29.93
2022-08-26T12:02:53.486Z,30.14
2022-08-26T12:05:25.685Z,30.23
2022-08-26T12:07:56.402Z,30.15
2022-08-26T12:10:30.074Z,30.31
2022-08-26T12:12:58.702Z,30.41
2022-08-26T12:15:25.952Z,30.21
2022-08-26T12:17:54.431Z,30.14
2022-08-26T12:20:54.161Z,30.16
2022-08-26T12:23:22.090Z,30.07
2022-08-26T12:25:49.759Z,30.01
2022-08-26T12:28:16.517Z,29.88
2022-08-26T12:31:05.377Z,29.80
2022-08-26T12:33:33.923Z,29.27
2022-08-26T12:36:02.047Z,28.00
2022-08-26T12:38:29.162Z,27.50
2022-08-26T12:40:56.946Z,27.36
2022-08-26T12:43:56.454Z,27.34
2022-08-26T12:46:26.140Z,26.99
2022-08-26T12:48:52.772Z,26.74
2022-08-26T12:51:24.843Z,26.70
2022-08-26T12:53:51.731Z,26.51
2022-08-26T12:56:20.767Z,26.19
2022-08-26T12:58:59.904Z,25.74
2022-08-26T13:01:26.501Z,25.37
2022-08-26T13:03:53.361Z,24.26
2022-08-26T13:06:22.854Z,24.14
2022-08-26T13:08:54.525Z,24.00
2022-08-26T13:11:22.836Z,23.32
2022-08-26T13:13:51.925Z,23.01
2022-08-26T13:16:20.888Z,22.93
2022-08-26T13:18:48.503Z,22.90
2022-08-26T13:21:19.308Z,23.03
2022-08-26T13:23:46.340Z,22.87
2022-08-26T13:26:12.818Z,22.75
2022-08-26T13:28:39.353Z,22.72
2022-08-26T13:31:06.227Z,22.47
2022-08-26T13:33:33.396Z,22.33
2022-08-26T13:36:00.874Z,22.44
2022-08-26T13:38:33.159Z,21.82
2022-08-26T13:41:02.594Z,21.67
2022-08-26T13:43:29.685Z,21.67
2022-08-26T13:45:56.496Z,21.85
2022-08-26T13:48:23.683Z,21.84
2022-08-26T13:50:50.295Z,21.66
2022-08-26T13:53:17.144Z,21.72
2022-08-26T13:55:43.664Z,21.85
2022-08-26T13:58:10.624Z,21.90
2022-08-26T14:00:39.743Z,21.99
2022-08-26T14:03:09.186Z,21.81
2022-08-26T14:05:39.178Z,21.78
2022-08-26T14:08:05.800Z,21.83
2022-08-26T14:10:32.382Z,21.86
2022-08-26T14:12:59.035Z,21.99
2022-08-26T14:15:25.773Z,21.98
2022-08-26T14:17:54.104Z,22.00
2022-08-26T14:20:24.124Z,22.10
2022-08-26T14:23:12.653Z,22.23
2022-08-26T14:25:37.208Z,22.29
2022-08-26T14:28:03.893Z,22.27
2022-08-26T14:30:30.486Z,22.35
2022-08-26T14:32:59.123Z,22.25
2022-08-26T14:35:27.551Z,22.32
2022-08-26T14:37:54.498Z,22.37
2022-08-26T14:40:22.245Z,22.22
2022-08-26T14:42:52.784Z,22.23
2022-08-26T14:45:22.606Z,22.13
2022-08-26T14:47:49.606Z,22.15
2022-08-26T14:50:18.165Z,22.27
2022-08-26T14:53:03.467Z,22.36
2022-08-26T14:55:32.659Z,22.54
2022-08-26T14:57:59.172Z,22.72
2022-08-26T15:00:25.779Z,22.84
2022-08-26T15:02:52.490Z,23.03
2022-08-26T15:05:19.260Z,23.20
2022-08-26T15:07:45.755Z,23.23
2022-08-26T15:10:14.023Z,23.29
2022-08-26T15:12:41.179Z,23.46
2022-08-26T15:15:08.776Z,23.50
2022-08-26T15:17:35.802Z,23.61
2022-08-26T15:20:02.834Z,23.77
2022-08-26T15:22:29.895Z,23.80
2022-08-26T15:24:57.487Z,23.97
2022-08-26T15:27:24.036Z,23.95
2022-08-26T15:29:50.627Z,24.00
2022-08-26T15:32:17.204Z,24.05
2022-08-26T15:34:43.893Z,24.13
2022-08-26T15:37:10.424Z,24.27
2022-08-26T15:39:36.917Z,24.33
2022-08-26T15:42:03.651Z,24.37
2022-08-26T15:44:30.240Z,24.49
2022-08-26T15:46:58.758Z,24.58
2022-08-26T15:49:25.929Z,24.62
2022-08-26T15:51:52.724Z,24.66
2022-08-26T15:54:21.159Z,24.67
2022-08-26T15:56:50.652Z,24.71
2022-08-26T15:59:17.827Z,24.74
2022-08-26T16:01:44.666Z,24.72
2022-08-26T16:04:11.566Z,24.65
2022-08-26T16:06:39.412Z,24.66
2022-08-26T16:09:06.595Z,24.63
2022-08-26T16:11:34.259Z,24.62
2022-08-26T16:14:00.801Z,24.50
2022-08-26T16:16:27.316Z,24.61
2022-08-26T16:18:54.094Z,24.61
2022-08-26T16:21:24.781Z,24.61
2022-08-26T16:23:51.857Z,24.52
2022-08-26T16:26:19.675Z,24.44
2022-08-26T16:28:46.220Z,24.50
2022-08-26T16:31:13.161Z,24.49
2022-08-26T16:33:39.946Z,24.39
2022-08-26T16:36:07.149Z,24.38
2022-08-26T16:38:34.095Z,24.37
2022-08-26T16:41:01.184Z,24.39
2022-08-26T16:43:28.336Z,24.24
2022-08-26T16:45:54.844Z,24.15
2022-08-26T16:48:21.430Z,24.08
2022-08-26T16:50:48.005Z,24.08
2022-08-26T16:55:50.200Z,24.05
2022-08-26T16:58:17.182Z,24.07
2022-08-26T17:00:44.119Z,24.05
2022-08-26T17:03:10.668Z,24.08
2022-08-26T17:05:37.410Z,24.11
2022-08-26T17:08:04.592Z,24.05
2022-08-26T17:10:31.304Z,24.05
2022-08-26T17:12:57.919Z,23.99
2022-08-26T17:15:25.442Z,23.87
2022-08-26T17:17:52.633Z,23.89
2022-08-26T17:20:19.988Z,23.86
2022-08-26T17:22:47.614Z,23.85
2022-08-26T17:25:17.150Z,23.86
2022-08-26T17:27:43.982Z,23.68
2022-08-26T17:30:10.738Z,23.53
2022-08-26T17:32:37.210Z,23.45
2022-08-26T17:35:04.345Z,23.32
2022-08-26T17:37:31.205Z,23.03
2022-08-26T17:39:58.463Z,23.05
2022-08-26T17:42:31.760Z,23.07
2022-08-26T17:44:58.493Z,23.02
2022-08-26T17:47:25.069Z,22.99
2022-08-26T17:49:51.548Z,22.99
2022-08-26T17:52:18.023Z,23.02
2022-08-26T17:54:44.475Z,23.03
2022-08-26T17:57:10.957Z,22.96
2022-08-26T17:59:38.695Z,22.99
2022-08-26T18:02:07.406Z,22.90
2022-08-26T18:04:39.821Z,22.83
2022-08-26T18:07:06.303Z,22.74
2022-08-26T18:09:33.217Z,22.70
2022-08-26T18:12:00.292Z,22.66
2022-08-26T18:14:26.942Z,22.66
2022-08-26T18:16:53.622Z,22.65
2022-08-26T18:19:20.054Z,22.62
2022-08-26T18:21:46.718Z,22.62
2022-08-26T18:24:14.197Z,22.59
2022-08-26T18:26:41.458Z,22.49
2022-08-26T18:29:08.103Z,22.41
2022-08-26T18:31:34.967Z,22.37
2022-08-26T18:34:02.231Z,22.33
2022-08-26T18:36:33.314Z,22.26
2022-08-26T18:39:00.296Z,22.21
2022-08-26T18:41:30.522Z,22.17
2022-08-26T18:43:57.489Z,22.09
2022-08-26T18:46:25.335Z,22.01
2022-08-26T18:48:53.317Z,22.01
2022-08-26T18:51:21.753Z,22.00
2022-08-26T18:53:48.374Z,21.99
2022-08-26T18:56:18.075Z,21.91
2022-08-26T18:58:45.297Z,21.86
2022-08-26T19:01:12.231Z,21.84
2022-08-26T19:03:38.788Z,21.76
2022-08-26T19:06:05.296Z,21.69
2022-08-26T19:08:31.914Z,21.68
2022-08-26T19:10:59.403Z,21.72
2022-08-26T19:13:26.663Z,21.73
2022-08-26T19:15:53.134Z,21.73
2022-08-26T19:18:19.976Z,21.73
2022-08-26T19:20:47.834Z,21.71
2022-08-26T19:23:30.507Z,21.66
2022-08-26T19:25:57.808Z,21.61
2022-08-26T19:28:24.291Z,21.59
2022-08-26T19:30:53.106Z,21.54
2022-08-26T19:33:19.934Z,21.52
2022-08-26T19:35:46.421Z,21.47
2022-08-26T19:38:12.985Z,21.41
2022-08-26T19:40:39.609Z,21.34
2022-08-26T19:43:06.507Z,21.33
2022-08-26T19:45:33.620Z,21.34
2022-08-26T19:48:00.154Z,21.32
2022-08-26T19:50:28.408Z,21.30
2022-08-26T19:52:55.022Z,21.29
2022-08-26T19:55:22.546Z,21.23
2022-08-26T19:57:50.257Z,21.23
2022-08-26T20:00:18.432Z,21.20
2022-08-26T20:02:44.885Z,21.17
2022-08-26T20:05:12.680Z,21.06
2022-08-26T20:07:39.141Z,21.03
2022-08-26T20:10:06.802Z,20.95
2022-08-26T20:12:35.569Z,20.91
2022-08-26T20:15:05.077Z,20.87
2022-08-26T20:17:32.003Z,20.86
2022-08-26T20:20:26.950Z,20.81
2022-08-26T20:22:59.641Z,20.70
2022-08-26T20:25:26.232Z,20.69
2022-08-26T20:27:52.752Z,20.66
2022-08-26T20:30:19.361Z,20.63
2022-08-26T20:32:45.860Z,20.64
2022-08-26T20:35:13.604Z,20.64
2022-08-26T20:37:40.816Z,20.64
2022-08-26T20:40:09.047Z,20.62
2022-08-26T20:42:35.740Z,20.56
2022-08-26T20:45:02.776Z,20.52
2022-08-26T20:47:29.565Z,20.51
2022-08-26T20:49:56.223Z,20.41
2022-08-26T20:52:22.734Z,20.39
2022-08-26T20:54:49.287Z,20.35
2022-08-26T20:57:15.807Z,20.37
2022-08-26T20:59:43.564Z,20.39
2022-08-26T21:02:10.151Z,20.39
2022-08-26T21:04:36.713Z,20.37
2022-08-26T21:07:03.334Z,20.37
2022-08-26T21:09:31.539Z,20.35
2022-08-26T21:11:59.244Z,20.35
2022-08-26T21:14:27.961Z,20.34
2022-08-26T21:16:54.646Z,20.33
2022-08-26T21:19:21.335Z,20.28
2022-08-26T21:21:48.682Z,20.24
2022-08-26T21:24:15.901Z,20.22
2022-08-26T21:26:42.476Z,20.21
2022-08-26T21:29:09.982Z,20.20
2022-08-26T21:31:40.016Z,20.18
2022-08-26T21:34:08.936Z,20.16
2022-08-26T21:36:35.409Z,20.18
2022-08-26T21:39:01.990Z,20.19
2022-08-26T21:41:28.847Z,20.17
2022-08-26T21:43:58.022Z,20.12
2022-08-26T21:46:25.687Z,20.06
2022-08-26T21:49:02.825Z,20.04
2022-08-26T21:51:31.211Z,19.99
2022-08-26T21:53:58.562Z,19.99
2022-08-26T21:56:27.085Z,19.99
2022-08-26T21:58:55.039Z,19.99
2022-08-26T22:01:29.565Z,19.95
2022-08-26T22:03:56.309Z,19.88
2022-08-26T22:06:24.628Z,19.85
2022-08-26T22:08:51.950Z,19.86
2022-08-26T22:11:19.035Z,19.86
2022-08-26T22:13:46.141Z,19.84
2022-08-26T22:16:13.322Z,19.81
2022-08-26T22:18:43.248Z,19.78
2022-08-26T22:21:10.759Z,19.76
2022-08-26T22:23:38.286Z,19.73
2022-08-26T22:26:08.342Z,19.70
2022-08-26T22:28:35.572Z,19.65
2022-08-26T22:31:02.115Z,19.64
2022-08-26T22:33:29.057Z,19.62
2022-08-26T22:35:55.755Z,19.59
2022-08-26T22:38:23.942Z,19.54
2022-08-26T22:40:51.886Z,19.51
2022-08-26T22:43:18.976Z,19.46
2022-08-26T22:45:47.226Z,19.45
2022-08-26T22:48:15.648Z,19.42
2022-08-26T22:50:42.671Z,19.42
2022-08-26T22:53:09.533Z,19.36
2022-08-26T22:55:36.158Z,19.35
2022-08-26T22:58:03.123Z,19.38
2022-08-26T23:00:32.105Z,19.35
2022-08-26T23:02:59.576Z,19.32
2022-08-26T23:05:26.098Z,19.31
2022-08-26T23:07:52.688Z,19.30
2022-08-26T23:10:19.188Z,19.31
2022-08-26T23:12:45.703Z,19.30
2022-08-26T23:15:12.605Z,19.32
2022-08-26T23:17:39.310Z,19.31
2022-08-26T23:20:08.545Z,19.33
2022-08-26T23:22:35.255Z,19.37
2022-08-26T23:25:02.511Z,19.36
2022-08-26T23:27:35.541Z,19.35
2022-08-26T23:30:02.459Z,19.37
2022-08-26T23:32:28.959Z,19.37
2022-08-26T23:35:01.476Z,19.36
2022-08-26T23:37:31.522Z,19.39
2022-08-26T23:39:59.226Z,19.44
2022-08-26T23:42:25.771Z,19.45
2022-08-26T23:44:55.659Z,19.44
2022-08-26T23:47:22.168Z,19.45
2022-08-26T23:49:48.656Z,19.48
2022-08-26T23:52:33.949Z,19.45
2022-08-26T23:55:00.449Z,19.43
2022-08-26T23:57:26.927Z,19.45
2022-08-26T23:59:53.563Z,19.44
